Time;durP1;ratioP1;P1;durP2;ratioP2;P2;SDS_P1;SDS_P2;PMS_P1;PMS_P2;Temp;Humidity;BMP_temperature;BMP_pressure;BME280_temperature;BME280_humidity;BME280_pressure;Samples;Min_cycle;Max_cycle;Signal;HPM_P1;HPM_P2
2022/06/28 00:01:39;;;;;;;8.02;4.18;;;;;;;;;;6248299;22;20031;-81
2022/06/28 00:04:07;;;;;;;9.90;4.28;;;;;;;;;;6248865;22;20025;-81
2022/06/28 00:06:35;;;;;;;8.48;4.05;;;;;;;;;;6249472;22;20450;-81
2022/06/28 00:09:02;;;;;;;9.23;4.00;;;;;;;;;;6249564;22;20021;-81
2022/06/28 00:11:29;;;;;;;10.32;4.15;;;;;;;;;;6222376;22;20474;-81
2022/06/28 00:13:56;;;;;;;6.85;3.92;;;;;;;;;;6248862;22;20028;-81
2022/06/28 00:16:23;;;;;;;7.35;4.15;;;;;;;;;;6249559;22;20021;-81
2022/06/28 00:18:51;;;;;;;8.23;3.80;;;;;;;;;;6249191;22;20055;-81
2022/06/28 00:21:18;;;;;;;6.03;3.80;;;;;;;;;;6249344;22;20031;-81
2022/06/28 00:23:48;;;;;;;9.80;4.18;;;;;;;;;;6249333;22;20937;-81
2022/06/28 00:26:15;;;;;;;12.13;4.38;;;;;;;;;;6249251;22;20059;-81
2022/06/28 00:28:42;;;;;;;6.40;3.85;;;;;;;;;;6249505;22;20031;-80
2022/06/28 00:31:09;;;;;;;7.45;3.70;;;;;;;;;;6249985;22;20028;-81
2022/06/28 00:33:36;;;;;;;11.30;4.10;;;;;;;;;;6249076;22;20083;-80
2022/06/28 00:36:03;;;;;;;7.97;4.43;;;;;;;;;;6249312;22;20029;-81
2022/06/28 00:38:31;;;;;;;11.70;4.85;;;;;;;;;;6248417;22;20347;-82
2022/06/28 00:40:58;;;;;;;8.73;4.45;;;;;;;;;;6249572;22;20133;-81
2022/06/28 00:43:25;;;;;;;11.77;4.13;;;;;;;;;;6249287;22;20025;-81
2022/06/28 00:45:52;;;;;;;15.25;5.07;;;;;;;;;;6249208;22;20378;-81
2022/06/28 00:48:19;;;;;;;12.43;5.35;;;;;;;;;;6249167;22;20025;-81
2022/06/28 00:50:46;;;;;;;9.90;5.22;;;;;;;;;;6249434;22;20031;-80
2022/06/28 00:53:15;;;;;;;8.25;5.00;;;;;;;;;;6249277;22;20024;-81
2022/06/28 00:55:43;;;;;;;9.77;4.82;;;;;;;;;;6248872;22;20025;-80
2022/06/28 00:58:11;;;;;;;11.88;4.90;;;;;;;;;;6249652;22;20549;-81
2022/06/28 01:00:41;;;;;;;9.48;4.85;;;;;;;;;;6249115;22;20028;-81
2022/06/28 01:03:14;;;;;;;11.15;4.95;;;;;;;;;;6248967;22;20832;-82
2022/06/28 01:05:50;;;;;;;11.93;5.78;;;;;;;;;;6249571;22;20411;-81
2022/06/28 01:08:18;;;;;;;9.43;4.80;;;;;;;;;;6249024;22;20027;-81
2022/06/28 01:10:45;;;;;;;8.18;4.95;;;;;;;;;;6249016;22;20023;-80
2022/06/28 01:13:13;;;;;;;12.93;5.20;;;;;;;;;;6249105;22;20377;-81
2022/06/28 01:15:41;;;;;;;9.52;5.97;;;;;;;;;;6249099;22;20568;-81
2022/06/28 01:18:09;;;;;;;14.02;6.32;;;;;;;;;;6248913;22;20496;-81
2022/06/28 01:20:36;;;;;;;12.18;5.53;;;;;;;;;;6249157;22;20446;-81
2022/06/28 01:23:04;;;;;;;33.05;6.20;;;;;;;;;;6249070;22;20031;-81
2022/06/28 01:25:31;;;;;;;15.43;6.00;;;;;;;;;;6248092;22;20033;-80
2022/06/28 01:27:58;;;;;;;15.07;5.38;;;;;;;;;;6248462;22;20108;-82
2022/06/28 01:30:26;;;;;;;10.48;5.28;;;;;;;;;;6248907;22;20031;-81
2022/06/28 01:32:53;;;;;;;8.02;4.68;;;;;;;;;;6248581;22;20090;-81
2022/06/28 01:35:20;;;;;;;10.27;4.85;;;;;;;;;;6249013;22;20013;-81
2022/06/28 01:37:49;;;;;;;9.60;4.47;;;;;;;;;;6248711;22;20031;-80
2022/06/28 01:40:16;;;;;;;12.25;5.03;;;;;;;;;;6248838;22;20056;-80
2022/06/28 01:42:44;;;;;;;15.40;5.15;;;;;;;;;;6249060;22;20020;-81
2022/06/28 01:45:12;;;;;;;12.25;5.47;;;;;;;;;;6248869;22;20107;-81
2022/06/28 01:47:44;;;;;;;12.35;5.35;;;;;;;;;;6248887;22;20025;-81
2022/06/28 01:50:11;;;;;;;12.18;5.93;;;;;;;;;;6249017;22;20028;-81
2022/06/28 01:52:40;;;;;;;8.57;6.03;;;;;;;;;;6248329;22;20034;-81
2022/06/28 01:55:08;;;;;;;19.08;6.22;;;;;;;;;;6248475;22;20033;-81
2022/06/28 01:57:35;;;;;;;12.82;5.88;;;;;;;;;;6248954;22;20752;-81
2022/06/28 02:00:02;;;;;;;9.75;5.68;;;;;;;;;;6249505;22;20023;-82
2022/06/28 02:02:30;;;;;;;11.63;5.55;;;;;;;;;;6249104;22;20044;-81
2022/06/28 02:04:57;;;;;;;14.38;6.10;;;;;;;;;;6249027;22;20096;-81
2022/06/28 02:07:24;;;;;;;10.18;6.03;;;;;;;;;;6248843;22;20047;-81
2022/06/28 02:09:51;;;;;;;11.10;6.00;;;;;;;;;;6249237;22;20107;-82
2022/06/28 02:12:18;;;;;;;13.43;5.30;;;;;;;;;;6222288;22;20891;-81
2022/06/28 02:14:45;;;;;;;10.45;5.57;;;;;;;;;;6249071;22;20019;-81
2022/06/28 02:17:12;;;;;;;9.93;6.10;;;;;;;;;;6221384;22;20024;-81
2022/06/28 02:19:40;;;;;;;12.88;5.65;;;;;;;;;;6248722;22;20099;-81
2022/06/28 02:22:07;;;;;;;14.02;6.28;;;;;;;;;;6248917;22;20021;-81
2022/06/28 02:24:34;;;;;;;9.93;5.82;;;;;;;;;;6248816;22;20031;-81
2022/06/28 02:27:01;;;;;;;9.77;5.85;;;;;;;;;;6248198;22;20495;-81
2022/06/28 02:29:28;;;;;;;14.55;6.13;;;;;;;;;;6221912;22;20025;-81
2022/06/28 02:31:55;;;;;;;10.93;6.35;;;;;;;;;;6248739;22;20021;-81
2022/06/28 02:42:47;;;;;;;7.47;5.20;;;;;;;;;;6248562;22;20892;-81
2022/06/28 02:45:15;;;;;;;12.55;5.90;;;;;;;;;;6248593;22;20840;-82
2022/06/28 02:47:43;;;;;;;11.73;5.55;;;;;;;;;;6248551;22;20031;-81
2022/06/28 02:50:10;;;;;;;14.10;5.57;;;;;;;;;;6248465;22;20099;-81
2022/06/28 02:52:37;;;;;;;9.10;5.25;;;;;;;;;;6248715;22;20807;-81
2022/06/28 02:55:06;;;;;;;12.65;5.25;;;;;;;;;;6248631;22;20052;-81
2022/06/28 02:57:34;;;;;;;16.10;5.85;;;;;;;;;;6249176;22;20031;-80
2022/06/28 03:00:02;;;;;;;13.15;5.32;;;;;;;;;;6248613;22;20031;-81
2022/06/28 03:02:29;;;;;;;9.30;5.57;;;;;;;;;;6248468;22;20024;-82
2022/06/28 03:04:56;;;;;;;10.55;5.13;;;;;;;;;;6221600;22;20865;-81
2022/06/28 03:07:23;;;;;;;11.48;5.40;;;;;;;;;;6247938;22;20064;-81
2022/06/28 03:09:50;;;;;;;12.15;5.95;;;;;;;;;;6248499;22;20017;-81
2022/06/28 03:12:17;;;;;;;14.27;5.68;;;;;;;;;;6248562;22;20502;-81
2022/06/28 03:14:44;;;;;;;13.48;5.97;;;;;;;;;;6248258;22;20032;-81
2022/06/28 03:17:11;;;;;;;14.30;6.63;;;;;;;;;;6248607;22;20025;-81
2022/06/28 03:19:38;;;;;;;16.27;5.95;;;;;;;;;;6248489;22;20024;-81
2022/06/28 03:22:05;;;;;;;11.77;6.22;;;;;;;;;;6248463;22;20019;-81
2022/06/28 03:24:33;;;;;;;11.02;5.72;;;;;;;;;;6248376;22;20496;-81
2022/06/28 03:27:00;;;;;;;10.77;5.50;;;;;;;;;;6248770;22;20040;-81
2022/06/28 03:29:27;;;;;;;9.95;5.70;;;;;;;;;;6248340;22;20031;-81
2022/06/28 03:31:54;;;;;;;11.27;6.38;;;;;;;;;;6247798;22;20017;-81
2022/06/28 03:34:21;;;;;;;9.82;5.90;;;;;;;;;;6248469;22;20815;-81
2022/06/28 03:36:48;;;;;;;13.27;5.97;;;;;;;;;;6248688;22;20058;-81
2022/06/28 03:39:15;;;;;;;10.63;5.85;;;;;;;;;;6247737;22;20726;-81
2022/06/28 03:41:42;;;;;;;16.67;7.05;;;;;;;;;;6248475;22;20025;-81
2022/06/28 03:44:10;;;;;;;8.52;5.93;;;;;;;;;;6248709;22;20025;-81
2022/06/28 03:46:37;;;;;;;10.65;5.90;;;;;;;;;;6248350;22;20027;-82
2022/06/28 03:49:04;;;;;;;11.32;5.97;;;;;;;;;;6248162;22;20024;-81
2022/06/28 03:51:31;;;;;;;17.70;6.65;;;;;;;;;;6248384;22;20024;-81
2022/06/28 03:53:58;;;;;;;8.93;5.78;;;;;;;;;;6248440;22;20028;-82
2022/06/28 03:56:26;;;;;;;11.20;5.90;;;;;;;;;;6247275;22;20055;-81
2022/06/28 03:58:53;;;;;;;13.30;5.15;;;;;;;;;;6248024;22;20487;-81
2022/06/28 04:01:20;;;;;;;10.73;5.10;;;;;;;;;;6248349;22;20021;-81
2022/06/28 04:03:47;;;;;;;6.78;4.65;;;;;;;;;;6248333;22;20024;-81
2022/06/28 04:06:14;;;;;;;6.93;4.72;;;;;;;;;;6248166;22;20462;-81
2022/06/28 04:08:41;;;;;;;11.27;4.95;;;;;;;;;;6248179;22;20737;-81
2022/06/28 04:11:14;;;;;;;10.45;5.03;;;;;;;;;;6248237;22;20025;-81
2022/06/28 04:13:48;;;;;;;6.93;4.57;;;;;;;;;;6248132;22;20431;-81
2022/06/28 04:16:16;;;;;;;14.93;4.78;;;;;;;;;;6248134;22;20528;-82
2022/06/28 04:18:43;;;;;;;11.25;5.05;;;;;;;;;;6248051;22;20020;-82
2022/06/28 04:21:11;;;;;;;12.38;4.97;;;;;;;;;;6247719;22;20021;-81
2022/06/28 04:23:38;;;;;;;12.82;5.57;;;;;;;;;;6247918;22;20048;-81
2022/06/28 04:26:06;;;;;;;12.25;5.80;;;;;;;;;;6248134;22;20028;-81
2022/06/28 04:28:33;;;;;;;11.48;6.10;;;;;;;;;;6248281;22;20099;-81
2022/06/28 04:31:00;;;;;;;12.73;6.22;;;;;;;;;;6247998;22;20027;-81
2022/06/28 04:33:28;;;;;;;12.00;6.20;;;;;;;;;;6247766;22;20029;-81
2022/06/28 04:35:55;;;;;;;13.63;6.25;;;;;;;;;;6247718;22;20020;-81
2022/06/28 04:38:23;;;;;;;14.68;6.35;;;;;;;;;;6248383;22;20031;-81
2022/06/28 04:40:51;;;;;;;17.45;6.13;;;;;;;;;;6247715;22;20035;-81
2022/06/28 04:43:19;;;;;;;15.15;6.05;;;;;;;;;;6248324;22;20111;-81
2022/06/28 04:45:46;;;;;;;14.60;5.47;;;;;;;;;;6220350;22;20051;-81
2022/06/28 04:48:13;;;;;;;11.18;5.72;;;;;;;;;;6247942;22;20020;-81
2022/06/28 04:50:40;;;;;;;8.70;4.45;;;;;;;;;;6249122;22;20092;-81
2022/06/28 04:53:07;;;;;;;15.45;4.80;;;;;;;;;;6249139;22;20111;-82
2022/06/28 04:55:34;;;;;;;10.10;4.53;;;;;;;;;;6249075;22;20025;-81
2022/06/28 04:58:02;;;;;;;15.15;5.78;;;;;;;;;;6249171;22;20039;-81
2022/06/28 05:00:29;;;;;;;10.90;4.38;;;;;;;;;;6249698;22;20672;-81
2022/06/28 05:03:16;;;;;;;22.50;5.45;;;;;;;;;;6249191;22;20040;-81
2022/06/28 05:05:45;;;;;;;15.30;4.72;;;;;;;;;;6222496;22;20031;-81
2022/06/28 05:08:12;;;;;;;12.88;4.25;;;;;;;;;;6249314;22;20047;-80
2022/06/28 05:10:39;;;;;;;16.00;4.50;;;;;;;;;;6248827;22;20883;-81
2022/06/28 05:13:12;;;;;;;9.35;4.13;;;;;;;;;;6249676;22;20035;-81
2022/06/28 05:15:39;;;;;;;25.50;5.63;;;;;;;;;;6249010;22;20119;-81
2022/06/28 05:18:06;;;;;;;13.13;5.32;;;;;;;;;;6249011;22;20091;-81
2022/06/28 05:20:33;;;;;;;23.52;4.60;;;;;;;;;;6249016;22;20027;-81
2022/06/28 05:23:00;;;;;;;11.45;3.75;;;;;;;;;;6249172;22;20027;-82
2022/06/28 05:25:27;;;;;;;7.30;3.88;;;;;;;;;;6249256;22;20027;-82
2022/06/28 05:27:54;;;;;;;11.00;3.50;;;;;;;;;;6250013;22;20031;-82
2022/06/28 05:30:22;;;;;;;11.27;4.10;;;;;;;;;;6248736;22;20480;-81
2022/06/28 05:32:49;;;;;;;13.10;3.42;;;;;;;;;;6249071;22;20031;-81
2022/06/28 05:35:16;;;;;;;11.00;3.22;;;;;;;;;;6248479;22;20029;-81
2022/06/28 05:37:43;;;;;;;9.23;3.45;;;;;;;;;;6249125;22;20021;-82
2022/06/28 05:40:10;;;;;;;11.00;3.17;;;;;;;;;;6249014;22;20366;-81
2022/06/28 05:42:37;;;;;;;11.15;3.42;;;;;;;;;;6248935;22;20029;-82
2022/06/28 05:45:08;;;;;;;22.92;6.78;;;;;;;;;;6248892;22;20021;-82
2022/06/28 05:47:37;;;;;;;12.75;3.50;;;;;;;;;;6248949;22;20021;-81
2022/06/28 05:50:05;;;;;;;12.35;3.70;;;;;;;;;;6248867;22;20452;-82
2022/06/28 05:52:32;;;;;;;10.45;3.22;;;;;;;;;;6249277;22;20025;-81
2022/06/28 05:54:59;;;;;;;12.82;3.03;;;;;;;;;;6221799;22;20111;-81
2022/06/28 05:57:26;;;;;;;10.93;3.08;;;;;;;;;;6249010;22;20027;-82
2022/06/28 05:59:53;;;;;;;10.40;3.20;;;;;;;;;;6248339;22;20060;-81
2022/06/28 06:02:20;;;;;;;12.63;3.20;;;;;;;;;;6248537;22;20029;-82
2022/06/28 06:04:48;;;;;;;10.95;3.00;;;;;;;;;;6248942;22;20020;-81
2022/06/28 06:07:15;;;;;;;12.60;2.90;;;;;;;;;;6248757;22;20178;-82
2022/06/28 06:09:42;;;;;;;12.10;3.33;;;;;;;;;;6249105;22;20845;-82
2022/06/28 06:12:09;;;;;;;14.15;3.22;;;;;;;;;;6249131;22;20040;-81
2022/06/28 06:14:36;;;;;;;14.23;3.72;;;;;;;;;;6222123;22;20474;-82
2022/06/28 06:17:04;;;;;;;12.82;3.53;;;;;;;;;;6249193;22;20024;-81
2022/06/28 06:19:31;;;;;;;13.02;3.50;;;;;;;;;;6248874;22;20374;-82
2022/06/28 06:21:58;;;;;;;9.95;2.97;;;;;;;;;;6248972;22;20031;-81
2022/06/28 06:24:25;;;;;;;17.55;3.65;;;;;;;;;;6248110;22;20032;-82
2022/06/28 06:26:52;;;;;;;14.50;2.85;;;;;;;;;;6248798;22;20088;-82
2022/06/28 06:29:20;;;;;;;14.52;3.10;;;;;;;;;;6249186;22;20462;-82
2022/06/28 06:31:47;;;;;;;12.18;3.13;;;;;;;;;;6248847;22;20030;-82
2022/06/28 06:34:14;;;;;;;12.43;3.10;;;;;;;;;;6248882;22;20031;-81
2022/06/28 06:36:46;;;;;;;12.40;2.72;;;;;;;;;;6248442;22;20031;-82
2022/06/28 06:39:17;;;;;;;16.25;4.10;;;;;;;;;;6248372;22;20025;-82
2022/06/28 06:41:45;;;;;;;12.40;2.75;;;;;;;;;;6248726;22;20029;-82
2022/06/28 06:44:12;;;;;;;12.52;2.78;;;;;;;;;;6248549;22;20020;-83
2022/06/28 06:46:39;;;;;;;12.70;2.97;;;;;;;;;;6248572;22;20032;-82
2022/06/28 06:49:06;;;;;;;15.05;2.65;;;;;;;;;;6248004;22;20017;-82
2022/06/28 06:51:35;;;;;;;10.38;2.90;;;;;;;;;;6248570;22;20059;-82
2022/06/28 06:54:02;;;;;;;26.15;3.42;;;;;;;;;;6248604;22;20028;-82
2022/06/28 06:56:30;;;;;;;14.77;3.35;;;;;;;;;;6248381;22;20028;-82
2022/06/28 06:58:57;;;;;;;13.75;3.35;;;;;;;;;;6221790;22;20021;-82
2022/06/28 07:01:28;;;;;;;16.40;3.58;;;;;;;;;;6248443;22;20729;-81
2022/06/28 07:04:14;;;;;;;13.18;2.65;;;;;;;;;;6248776;22;20020;-82
2022/06/28 07:06:41;;;;;;;14.52;3.17;;;;;;;;;;6248815;22;20075;-82
2022/06/28 07:09:08;;;;;;;13.07;2.90;;;;;;;;;;6248869;22;20025;-82
2022/06/28 07:11:35;;;;;;;17.17;3.40;;;;;;;;;;6248653;22;20785;-82
2022/06/28 07:14:03;;;;;;;16.88;3.17;;;;;;;;;;6221257;22;20028;-82
2022/06/28 07:16:30;;;;;;;14.38;3.10;;;;;;;;;;6248848;22;20031;-82
2022/06/28 07:18:58;;;;;;;13.00;2.75;;;;;;;;;;6256584;22;20035;-82
2022/06/28 07:21:25;;;;;;;14.90;3.08;;;;;;;;;;6254072;22;20025;-82
2022/06/28 07:23:52;;;;;;;15.38;2.80;;;;;;;;;;6249766;22;20025;-82
2022/06/28 07:26:22;;;;;;;13.48;3.08;;;;;;;;;;6249399;22;20024;-82
2022/06/28 07:28:49;;;;;;;18.48;2.97;;;;;;;;;;6249080;22;20815;-81
2022/06/28 07:31:16;;;;;;;22.75;3.50;;;;;;;;;;6248747;22;20025;-82
2022/06/28 07:33:43;;;;;;;17.92;3.47;;;;;;;;;;6248571;22;20359;-82
2022/06/28 07:36:15;;;;;;;18.02;3.63;;;;;;;;;;6222036;22;20361;-81
2022/06/28 07:38:42;;;;;;;12.93;2.92;;;;;;;;;;6247933;22;20112;-81
2022/06/28 07:41:10;;;;;;;12.27;2.90;;;;;;;;;;6248902;22;20143;-82
2022/06/28 07:43:37;;;;;;;11.23;2.45;;;;;;;;;;6221594;22;20051;-82
2022/06/28 07:46:12;;;;;;;11.10;2.45;;;;;;;;;;6248868;22;20111;-81
2022/06/28 07:48:39;;;;;;;13.00;1.98;;;;;;;;;;6248496;22;20036;-81
2022/06/28 07:53:52;;;;;;;10.27;2.35;;;;;;;;;;6248577;22;20028;-81
2022/06/28 07:56:19;;;;;;;8.57;1.80;;;;;;;;;;6248107;22;20025;-81
2022/06/28 07:58:46;;;;;;;10.18;1.80;;;;;;;;;;6248303;22;20028;-81
2022/06/28 08:01:13;;;;;;;11.40;2.13;;;;;;;;;;6248004;22;20837;-81
2022/06/28 08:03:40;;;;;;;8.80;1.80;;;;;;;;;;6220951;22;20067;-81
2022/06/28 08:06:10;;;;;;;9.77;1.77;;;;;;;;;;6247824;22;20025;-81
2022/06/28 08:08:37;;;;;;;9.88;1.58;;;;;;;;;;6248324;22;20069;-81
2022/06/28 08:11:04;;;;;;;9.88;1.70;;;;;;;;;;6248328;22;20029;-81
2022/06/28 08:13:31;;;;;;;7.85;1.77;;;;;;;;;;6221537;22;20035;-81
2022/06/28 08:15:59;;;;;;;12.85;1.50;;;;;;;;;;6248452;22;20038;-81
2022/06/28 08:18:28;;;;;;;11.63;1.92;;;;;;;;;;6247851;22;20785;-81
2022/06/28 08:20:57;;;;;;;13.98;2.30;;;;;;;;;;6247805;22;20029;-83
2022/06/28 08:23:24;;;;;;;13.82;2.20;;;;;;;;;;6248016;22;20031;-81
2022/06/28 08:25:51;;;;;;;10.40;2.00;;;;;;;;;;6249290;22;20021;-81
2022/06/28 08:28:18;;;;;;;10.25;1.83;;;;;;;;;;6248803;22;20024;-81
2022/06/28 08:30:45;;;;;;;8.18;1.85;;;;;;;;;;6249060;22;20536;-81
2022/06/28 08:33:12;;;;;;;9.93;1.70;;;;;;;;;;6249106;22;20020;-82
2022/06/28 08:35:40;;;;;;;7.63;1.90;;;;;;;;;;6249091;22;20021;-83
2022/06/28 08:38:07;;;;;;;7.63;1.63;;;;;;;;;;6249583;22;21030;-81
2022/06/28 08:40:35;;;;;;;5.82;1.65;;;;;;;;;;6249529;22;20028;-81
2022/06/28 08:43:04;;;;;;;10.68;2.00;;;;;;;;;;6249274;22;20031;-81
2022/06/28 08:45:32;;;;;;;11.55;2.17;;;;;;;;;;6249798;22;20043;-81
2022/06/28 08:48:01;;;;;;;11.65;1.98;;;;;;;;;;6249770;22;20033;-81
2022/06/28 08:50:32;;;;;;;10.23;1.60;;;;;;;;;;6249266;22;20076;-81
2022/06/28 08:53:01;;;;;;;13.15;2.13;;;;;;;;;;6248778;22;20029;-81
2022/06/28 08:55:29;;;;;;;11.63;1.63;;;;;;;;;;6249113;22;20024;-81
2022/06/28 08:57:57;;;;;;;10.73;2.22;;;;;;;;;;6249706;22;20021;-82
2022/06/28 09:00:24;;;;;;;7.38;1.45;;;;;;;;;;6249326;22;20103;-81
2022/06/28 09:02:52;;;;;;;9.73;1.77;;;;;;;;;;6249321;22;20458;-81
2022/06/28 09:05:20;;;;;;;13.60;1.60;;;;;;;;;;6249223;22;20073;-82
2022/06/28 09:07:50;;;;;;;8.68;1.88;;;;;;;;;;6249734;22;20025;-81
2022/06/28 09:10:17;;;;;;;6.13;1.45;;;;;;;;;;6249151;22;20035;-82
2022/06/28 09:13:09;;;;;;;6.38;1.92;;;;;;;;;;6248781;22;20021;-83
2022/06/28 09:15:49;;;;;;;9.68;1.60;;;;;;;;;;6249907;22;20024;-81
2022/06/28 09:18:16;;;;;;;5.43;1.50;;;;;;;;;;6249112;22;20031;-81
2022/06/28 09:20:44;;;;;;;7.82;1.67;;;;;;;;;;6249006;22;20024;-82
2022/06/28 09:23:22;;;;;;;8.48;1.60;;;;;;;;;;6249265;22;20144;-81
2022/06/28 09:25:49;;;;;;;8.30;1.58;;;;;;;;;;6249041;22;20028;-81
2022/06/28 09:28:22;;;;;;;6.07;1.30;;;;;;;;;;6249184;22;20024;-81
2022/06/28 09:30:49;;;;;;;19.55;1.90;;;;;;;;;;6249638;22;20029;-82
2022/06/28 09:33:26;;;;;;;3.58;0.98;;;;;;;;;;6248999;22;20075;-81
2022/06/28 09:35:54;;;;;;;6.63;1.25;;;;;;;;;;6248375;22;20108;-82
2022/06/28 09:38:32;;;;;;;2.97;0.90;;;;;;;;;;6223721;22;20024;-82
2022/06/28 09:41:00;;;;;;;5.93;1.50;;;;;;;;;;6249139;22;20035;-82
2022/06/28 09:43:34;;;;;;;4.38;1.20;;;;;;;;;;6248699;22;20103;-82
2022/06/28 09:46:04;;;;;;;6.38;1.33;;;;;;;;;;6249254;22;20461;-82
2022/06/28 09:48:37;;;;;;;3.80;1.35;;;;;;;;;;6249528;22;20454;-81
2022/06/28 09:51:04;;;;;;;9.13;1.75;;;;;;;;;;6249407;22;20032;-81
2022/06/28 09:53:34;;;;;;;8.07;1.90;;;;;;;;;;6249048;22;20025;-81
2022/06/28 09:56:23;;;;;;;5.93;1.52;;;;;;;;;;6248600;22;20458;-81
2022/06/28 09:58:51;;;;;;;8.32;1.70;;;;;;;;;;6249180;22;20020;-82
2022/06/28 10:01:19;;;;;;;7.22;1.60;;;;;;;;;;6248958;22;20047;-82
2022/06/28 10:03:48;;;;;;;9.32;1.33;;;;;;;;;;6248965;22;20024;-81
2022/06/28 10:06:17;;;;;;;5.05;1.20;;;;;;;;;;6222153;22;20071;-81
2022/06/28 10:08:44;;;;;;;5.43;1.30;;;;;;;;;;6248441;22;20521;-81
2022/06/28 10:11:12;;;;;;;4.55;1.10;;;;;;;;;;6249104;22;20047;-82
2022/06/28 10:16:49;;;;;;;4.05;1.00;;;;;;;;;;6248830;22;20054;-82
2022/06/28 10:19:20;;;;;;;4.70;1.02;;;;;;;;;;6249727;22;20024;-82
2022/06/28 10:21:47;;;;;;;3.58;1.30;;;;;;;;;;6248981;22;20029;-83
2022/06/28 10:24:14;;;;;;;4.28;1.25;;;;;;;;;;6248863;22;20027;-82
2022/06/28 10:26:43;;;;;;;6.63;1.63;;;;;;;;;;6248769;22;20030;-82
2022/06/28 10:29:11;;;;;;;6.10;1.65;;;;;;;;;;6249147;22;20096;-81
2022/06/28 10:31:44;;;;;;;5.85;1.38;;;;;;;;;;6249320;22;20761;-82
2022/06/28 10:34:19;;;;;;;5.13;1.20;;;;;;;;;;6248416;22;20486;-82
2022/06/28 10:36:49;;;;;;;5.68;1.10;;;;;;;;;;6249236;22;20024;-82
2022/06/28 10:39:31;;;;;;;5.30;1.13;;;;;;;;;;6248813;22;20847;-82
2022/06/28 10:41:58;;;;;;;5.78;1.40;;;;;;;;;;6248871;22;20029;-83
2022/06/28 10:44:27;;;;;;;5.68;1.65;;;;;;;;;;6248740;22;20054;-82
2022/06/28 10:47:06;;;;;;;8.18;1.08;;;;;;;;;;6248434;22;20754;-82
2022/06/28 10:49:45;;;;;;;7.05;1.27;;;;;;;;;;6248842;22;20107;-82
2022/06/28 10:52:15;;;;;;;5.40;1.40;;;;;;;;;;6248414;22;20082;-82
2022/06/28 10:55:03;;;;;;;6.68;1.35;;;;;;;;;;6221564;22;20872;-81
2022/06/28 10:57:33;;;;;;;8.45;1.70;;;;;;;;;;6248471;22;20021;-81
2022/06/28 11:00:04;;;;;;;5.13;1.27;;;;;;;;;;6248103;22;20847;-81
2022/06/28 11:02:58;;;;;;;7.57;1.23;;;;;;;;;;6222696;22;20032;-81
2022/06/28 11:05:45;;;;;;;3.20;1.20;;;;;;;;;;6249638;22;20032;-82
2022/06/28 11:08:15;;;;;;;6.15;1.15;;;;;;;;;;6222216;22;20017;-82
2022/06/28 11:11:04;;;;;;;7.53;1.70;;;;;;;;;;6222047;22;20042;-82
2022/06/28 11:13:34;;;;;;;3.58;1.25;;;;;;;;;;6248634;22;20091;-81
2022/06/28 11:16:02;;;;;;;6.00;1.55;;;;;;;;;;6221610;22;20110;-82
2022/06/28 11:18:30;;;;;;;5.03;1.48;;;;;;;;;;6248488;22;20071;-82
2022/06/28 11:20:57;;;;;;;4.68;1.65;;;;;;;;;;6249231;22;20024;-83
2022/06/28 11:23:28;;;;;;;5.05;1.20;;;;;;;;;;6249031;22;20492;-81
2022/06/28 11:28:57;;;;;;;5.22;1.25;;;;;;;;;;6248989;22;20024;-81
2022/06/28 11:31:25;;;;;;;5.93;1.13;;;;;;;;;;6222233;22;20020;-81
2022/06/28 11:33:53;;;;;;;4.25;1.40;;;;;;;;;;6248563;22;20029;-82
2022/06/28 11:36:23;;;;;;;4.88;1.60;;;;;;;;;;6222586;22;20028;-82
2022/06/28 11:38:51;;;;;;;5.47;1.30;;;;;;;;;;6249137;22;20032;-81
2022/06/28 11:41:28;;;;;;;10.27;1.60;;;;;;;;;;6250040;22;20012;-82
2022/06/28 11:43:56;;;;;;;4.75;1.02;;;;;;;;;;6222098;22;20873;-82
2022/06/28 11:46:23;;;;;;;5.75;1.40;;;;;;;;;;6249083;22;20075;-82
2022/06/28 11:48:51;;;;;;;5.97;1.55;;;;;;;;;;6248525;22;20040;-82
2022/06/28 11:51:25;;;;;;;5.97;1.48;;;;;;;;;;6247685;22;20055;-83
2022/06/28 11:53:53;;;;;;;3.28;1.20;;;;;;;;;;6247975;22;20032;-82
2022/06/28 11:56:20;;;;;;;4.72;1.27;;;;;;;;;;6221510;22;20031;-81
2022/06/28 11:58:47;;;;;;;4.25;1.25;;;;;;;;;;6221217;22;20043;-83
2022/06/28 12:01:19;;;;;;;5.88;1.25;;;;;;;;;;6221614;22;20025;-82
2022/06/28 12:03:46;;;;;;;4.30;1.27;;;;;;;;;;6221601;22;20028;-82
2022/06/28 12:06:19;;;;;;;4.72;1.48;;;;;;;;;;6221743;22;20816;-82
2022/06/28 12:08:49;;;;;;;5.55;1.20;;;;;;;;;;6222554;22;20116;-82
2022/06/28 12:11:26;;;;;;;5.00;1.40;;;;;;;;;;6222021;22;20024;-82
2022/06/28 12:13:56;;;;;;;5.20;1.48;;;;;;;;;;6248882;22;20028;-82
2022/06/28 12:16:24;;;;;;;5.13;1.35;;;;;;;;;;6220617;22;20028;-82
2022/06/28 12:18:55;;;;;;;4.88;1.48;;;;;;;;;;6248148;22;20021;-83
2022/06/28 12:21:22;;;;;;;3.90;1.15;;;;;;;;;;6248141;22;20019;-82
2022/06/28 12:23:51;;;;;;;6.78;1.42;;;;;;;;;;6248557;22;20021;-82
2022/06/28 12:26:18;;;;;;;3.17;1.27;;;;;;;;;;6221385;22;20045;-82
2022/06/28 12:28:46;;;;;;;3.55;1.17;;;;;;;;;;6223184;22;20070;-82
2022/06/28 12:31:13;;;;;;;4.10;1.13;;;;;;;;;;6223725;22;20021;-82
2022/06/28 12:33:40;;;;;;;4.47;1.67;;;;;;;;;;6248811;22;20088;-82
2022/06/28 12:36:07;;;;;;;5.25;1.70;;;;;;;;;;6247899;22;20025;-83
2022/06/28 12:38:34;;;;;;;4.78;1.30;;;;;;;;;;6221441;22;20040;-82
2022/06/28 12:41:02;;;;;;;5.35;1.60;;;;;;;;;;6247607;22;20075;-82
2022/06/28 12:43:29;;;;;;;5.55;1.40;;;;;;;;;;6247697;22;20059;-82
2022/06/28 12:45:59;;;;;;;4.90;1.23;;;;;;;;;;6221525;22;20040;-82
2022/06/28 12:48:26;;;;;;;8.80;1.30;;;;;;;;;;6248181;22;20075;-82
2022/06/28 12:50:53;;;;;;;4.15;1.38;;;;;;;;;;6221247;22;20020;-81
2022/06/28 12:53:20;;;;;;;3.90;1.50;;;;;;;;;;6248185;22;20151;-82
2022/06/28 12:55:47;;;;;;;3.58;1.30;;;;;;;;;;6247890;22;20094;-81
2022/06/28 12:58:15;;;;;;;4.82;1.20;;;;;;;;;;6221346;22;20025;-82
2022/06/28 13:00:45;;;;;;;5.20;1.42;;;;;;;;;;6248175;22;20789;-81
2022/06/28 13:03:13;;;;;;;5.10;1.55;;;;;;;;;;6221524;22;20071;-81
2022/06/28 13:05:40;;;;;;;6.40;1.23;;;;;;;;;;6247297;22;20025;-81
2022/06/28 13:08:08;;;;;;;9.00;1.98;;;;;;;;;;6247810;22;20020;-82
2022/06/28 13:10:38;;;;;;;5.68;1.30;;;;;;;;;;6248506;22;20012;-82
2022/06/28 13:13:06;;;;;;;2.35;1.20;;;;;;;;;;6249202;22;20021;-82
2022/06/28 13:15:34;;;;;;;4.13;1.48;;;;;;;;;;6249526;22;20099;-82
2022/06/28 13:18:01;;;;;;;4.47;1.30;;;;;;;;;;6249504;22;20028;-82
2022/06/28 13:20:28;;;;;;;4.97;1.25;;;;;;;;;;6249416;22;20020;-82
2022/06/28 13:23:00;;;;;;;3.42;1.20;;;;;;;;;;6224101;22;20021;-81
2022/06/28 13:25:27;;;;;;;6.97;1.55;;;;;;;;;;6251516;22;20079;-83
2022/06/28 13:27:54;;;;;;;5.45;1.30;;;;;;;;;;6251919;22;20025;-82
2022/06/28 13:30:21;;;;;;;7.55;1.55;;;;;;;;;;6250668;22;20021;-82
2022/06/28 13:32:48;;;;;;;4.43;1.10;;;;;;;;;;6249678;22;20880;-82
2022/06/28 13:35:15;;;;;;;4.60;1.40;;;;;;;;;;6249322;22;20845;-81
2022/06/28 13:37:43;;;;;;;4.20;1.27;;;;;;;;;;6249598;22;20024;-82
2022/06/28 13:40:11;;;;;;;4.75;1.70;;;;;;;;;;6249533;22;20020;-82
2022/06/28 13:42:44;;;;;;;3.70;1.30;;;;;;;;;;6249439;22;20540;-82
2022/06/28 13:45:12;;;;;;;4.70;1.52;;;;;;;;;;6222699;22;20048;-82
2022/06/28 13:47:39;;;;;;;6.43;1.77;;;;;;;;;;6249214;22;20075;-81
2022/06/28 13:50:07;;;;;;;3.35;1.23;;;;;;;;;;6249910;22;20029;-82
2022/06/28 13:52:34;;;;;;;7.03;1.60;;;;;;;;;;6249745;22;20107;-81
2022/06/28 13:55:06;;;;;;;4.70;1.20;;;;;;;;;;6249025;22;20083;-82
2022/06/28 13:57:33;;;;;;;4.30;1.23;;;;;;;;;;6249702;22;20568;-82
2022/06/28 14:00:00;;;;;;;10.15;2.65;;;;;;;;;;6249298;22;20029;-82
2022/06/28 14:02:27;;;;;;;6.10;1.73;;;;;;;;;;6249797;22;20032;-82
2022/06/28 14:04:54;;;;;;;2.70;1.10;;;;;;;;;;6249302;22;20020;-81
2022/06/28 14:07:22;;;;;;;5.65;1.48;;;;;;;;;;6249533;22;20020;-82
2022/06/28 14:09:49;;;;;;;5.22;1.00;;;;;;;;;;6249568;22;20020;-82
2022/06/28 14:12:16;;;;;;;7.45;1.35;;;;;;;;;;6249340;22;20154;-82
2022/06/28 14:14:43;;;;;;;3.20;1.05;;;;;;;;;;6222517;22;20044;-82
2022/06/28 14:17:10;;;;;;;3.95;1.20;;;;;;;;;;6248911;22;20087;-82
2022/06/28 14:19:39;;;;;;;5.93;1.10;;;;;;;;;;6222357;22;20089;-81
2022/06/28 14:22:07;;;;;;;5.78;1.52;;;;;;;;;;6221994;22;20087;-82
2022/06/28 14:24:34;;;;;;;4.00;1.45;;;;;;;;;;6250029;22;20044;-81
2022/06/28 14:27:01;;;;;;;3.08;1.50;;;;;;;;;;6248986;22;20099;-82
2022/06/28 14:29:33;;;;;;;6.50;1.60;;;;;;;;;;6248798;22;20859;-81
2022/06/28 14:32:00;;;;;;;4.47;1.38;;;;;;;;;;6249102;22;20561;-81
2022/06/28 14:34:28;;;;;;;3.45;1.40;;;;;;;;;;6249249;22;20025;-82
2022/06/28 14:37:06;;;;;;;5.35;1.10;;;;;;;;;;6249450;22;20028;-82
2022/06/28 14:39:34;;;;;;;5.90;1.35;;;;;;;;;;6223715;22;20028;-81
2022/06/28 14:42:16;;;;;;;5.40;1.27;;;;;;;;;;6253755;22;20040;-83
2022/06/28 14:44:51;;;;;;;4.35;1.38;;;;;;;;;;6225316;22;20021;-81
2022/06/28 14:47:21;;;;;;;3.05;1.05;;;;;;;;;;6221779;22;20079;-82
2022/06/28 14:49:48;;;;;;;2.80;1.25;;;;;;;;;;6248566;22;20096;-81
2022/06/28 14:52:15;;;;;;;3.50;1.10;;;;;;;;;;6222438;22;20021;-83
2022/06/28 14:54:51;;;;;;;5.60;1.35;;;;;;;;;;6221873;22;20108;-82
2022/06/28 14:57:20;;;;;;;6.93;1.67;;;;;;;;;;6222970;22;20023;-82
2022/06/28 14:59:48;;;;;;;5.57;1.30;;;;;;;;;;6220506;22;20843;-82
2022/06/28 15:02:18;;;;;;;6.05;1.30;;;;;;;;;;6249124;22;20028;-82